Time;durP1;ratioP1;P1;durP2;ratioP2;P2;SDS_P1;SDS_P2;PMS_P1;PMS_P2;Temp;Humidity;BMP_temperature;BMP_pressure;BME280_temperature;BME280_humidity;BME280_pressure;Samples;Min_cycle;Max_cycle;Signal;HPM_P1;HPM_P2
2021/12/18 00:02:12;;;;;;;2.08;1.52;;;21.70;37.30;;;;;;5070565;28;20396;-68
2021/12/18 00:04:38;;;;;;;1.90;1.50;;;21.70;37.10;;;;;;5070825;28;20376;-68
2021/12/18 00:07:04;;;;;;;2.22;1.65;;;21.70;37.10;;;;;;5070990;28;20427;-68
2021/12/18 00:09:32;;;;;;;2.33;1.70;;;21.70;37.00;;;;;;5071055;28;20407;-68
2021/12/18 00:12:01;;;;;;;1.92;1.60;;;21.70;36.90;;;;;;5070578;28;20468;-68
2021/12/18 00:14:27;;;;;;;1.60;1.33;;;21.70;36.70;;;;;;5070602;28;20449;-68
2021/12/18 00:16:53;;;;;;;1.70;1.33;;;21.70;36.90;;;;;;5070861;28;20941;-68
2021/12/18 00:19:25;;;;;;;1.75;1.40;;;21.70;36.60;;;;;;5071026;28;20441;-67
2021/12/18 00:21:52;;;;;;;1.75;1.52;;;21.70;36.70;;;;;;5070849;28;20399;-68
2021/12/18 00:24:17;;;;;;;1.90;1.60;;;21.70;36.70;;;;;;5052577;28;20406;-68
2021/12/18 00:26:43;;;;;;;1.60;1.30;;;21.70;36.80;;;;;;5070802;28;20391;-68
2021/12/18 00:29:08;;;;;;;2.40;1.42;;;21.70;37.00;;;;;;5052889;28;20403;-68
2021/12/18 00:31:34;;;;;;;1.90;1.40;;;21.70;37.10;;;;;;5070638;28;20504;-68
2021/12/18 00:34:00;;;;;;;1.80;1.50;;;21.70;37.00;;;;;;5070543;28;20402;-68
2021/12/18 00:36:25;;;;;;;1.87;1.20;;;21.70;36.90;;;;;;5070534;28;20445;-68
2021/12/18 00:38:51;;;;;;;2.25;1.52;;;21.70;36.80;;;;;;5054392;28;20426;-68
2021/12/18 00:41:35;;;;;;;1.73;1.30;;;21.70;36.70;;;;;;5074121;28;20465;-68
2021/12/18 00:44:02;;;;;;;1.57;1.40;;;21.70;36.60;;;;;;5074136;28;20429;-68
2021/12/18 00:46:38;;;;;;;1.90;1.40;;;21.60;36.60;;;;;;5073914;28;20398;-68
2021/12/18 00:49:05;;;;;;;1.80;1.40;;;21.60;36.60;;;;;;5074216;28;20786;-68
2021/12/18 00:51:31;;;;;;;2.10;1.30;;;21.60;36.80;;;;;;5073971;28;20498;-68
2021/12/18 00:53:57;;;;;;;1.45;1.10;;;21.60;36.60;;;;;;5073716;28;20744;-68
2021/12/18 00:56:23;;;;;;;1.70;1.20;;;21.60;36.60;;;;;;5073834;28;20392;-68
2021/12/18 00:58:50;;;;;;;1.57;1.40;;;21.60;36.60;;;;;;5073868;28;20384;-68
2021/12/18 01:01:21;;;;;;;1.63;1.38;;;21.60;36.60;;;;;;5055912;28;20537;-68
2021/12/18 01:03:48;;;;;;;1.75;1.40;;;21.60;36.70;;;;;;5073837;28;20388;-68
2021/12/18 01:06:16;;;;;;;1.60;1.30;;;21.60;36.80;;;;;;5073303;28;20396;-68
2021/12/18 01:08:41;;;;;;;2.45;1.42;;;21.60;36.80;;;;;;5073731;28;20429;-68
2021/12/18 01:13:43;;;;;;;1.80;1.25;;;21.60;36.80;;;;;;5073177;28;20383;-68
2021/12/18 01:16:17;;;;;;;2.10;1.30;;;21.60;36.80;;;;;;5055174;28;20910;-67
2021/12/18 01:24:31;;;;;;;1.80;1.20;;;21.60;36.90;;;;;;5011247;28;20476;-68
2021/12/18 01:26:57;;;;;;;1.67;1.30;;;21.60;36.90;;;;;;5048130;28;20388;-68
2021/12/18 01:29:23;;;;;;;1.67;1.37;;;21.60;36.90;;;;;;5073445;28;20417;-68
2021/12/18 01:31:48;;;;;;;1.95;1.30;;;21.60;36.90;;;;;;5055205;28;20930;-68
2021/12/18 01:34:14;;;;;;;1.70;1.40;;;21.60;36.90;;;;;;5054892;28;20510;-67
2021/12/18 01:36:40;;;;;;;1.73;1.40;;;21.50;36.80;;;;;;5055300;28;20391;-68
2021/12/18 01:39:05;;;;;;;2.27;1.60;;;21.60;36.80;;;;;;5073263;28;20852;-67
2021/12/18 01:41:40;;;;;;;1.70;1.23;;;21.60;36.60;;;;;;5054836;28;20808;-68
2021/12/18 01:52:04;;;;;;;2.40;1.70;;;21.60;36.50;;;;;;5072422;28;20526;-68
2021/12/18 01:54:31;;;;;;;1.90;1.50;;;21.60;36.50;;;;;;5054774;28;20394;-68
2021/12/18 01:56:59;;;;;;;2.50;1.67;;;21.60;36.50;;;;;;5072531;28;20399;-68
2021/12/18 01:59:41;;;;;;;2.00;1.70;;;21.50;36.50;;;;;;5072822;28;20933;-68
2021/12/18 02:02:07;;;;;;;1.90;1.50;;;21.60;36.50;;;;;;5054523;28;20399;-68
2021/12/18 02:04:33;;;;;;;2.10;1.77;;;21.50;36.50;;;;;;5072446;28;20479;-68
2021/12/18 02:07:00;;;;;;;2.15;1.50;;;21.50;36.50;;;;;;5054729;28;20466;-68
2021/12/18 02:09:36;;;;;;;1.75;1.55;;;21.50;36.60;;;;;;5072608;28;20382;-67
2021/12/18 02:12:02;;;;;;;2.30;1.60;;;21.50;36.60;;;;;;5072207;28;20510;-67
2021/12/18 02:19:33;;;;;;;2.00;1.50;;;21.50;36.60;;;;;;5072222;28;20514;-68
2021/12/18 02:22:59;;;;;;;2.55;1.60;;;21.50;36.60;;;;;;5072637;28;20426;-68
2021/12/18 02:25:26;;;;;;;2.10;1.70;;;21.50;36.40;;;;;;5072291;28;20380;-68
2021/12/18 02:27:52;;;;;;;2.60;1.60;;;21.50;36.30;;;;;;5072106;28;20404;-67
2021/12/18 02:30:22;;;;;;;2.10;1.40;;;21.50;36.40;;;;;;5071613;28;20490;-68
2021/12/18 02:32:49;;;;;;;1.90;1.60;;;21.50;36.40;;;;;;5072206;28;20434;-68
2021/12/18 02:35:35;;;;;;;2.60;1.50;;;21.50;36.30;;;;;;5072128;28;20424;-68
2021/12/18 02:38:16;;;;;;;2.30;1.70;;;21.50;36.40;;;;;;5071871;28;20392;-68
2021/12/18 02:43:11;;;;;;;2.05;1.73;;;21.50;36.40;;;;;;5071768;28;20414;-67
2021/12/18 02:45:37;;;;;;;1.90;1.43;;;21.50;36.50;;;;;;5071878;28;20388;-68
2021/12/18 02:48:02;;;;;;;2.00;1.70;;;21.40;36.40;;;;;;5071713;28;20388;-67
2021/12/18 02:50:28;;;;;;;1.80;1.50;;;21.50;36.40;;;;;;5071598;28;20764;-67
2021/12/18 02:52:54;;;;;;;1.85;1.50;;;21.50;36.40;;;;;;5071273;28;20388;-67
2021/12/18 02:55:20;;;;;;;1.70;1.40;;;21.50;36.40;;;;;;5071892;28;20762;-68
2021/12/18 02:57:45;;;;;;;1.90;1.50;;;21.50;36.30;;;;;;5071430;28;20469;-68
2021/12/18 03:00:12;;;;;;;1.87;1.60;;;21.50;36.50;;;;;;5070933;28;20884;-68
2021/12/18 03:02:43;;;;;;;2.13;1.53;;;21.50;36.40;;;;;;5071275;28;20438;-68
2021/12/18 03:05:13;;;;;;;1.83;1.40;;;21.40;36.40;;;;;;5071623;28;20392;-67
2021/12/18 03:07:39;;;;;;;2.08;1.48;;;21.40;36.40;;;;;;5071645;28;20384;-67
2021/12/18 03:25:59;;;;;;;1.80;1.50;;;21.40;36.00;;;;;;5071761;28;20383;-68
2021/12/18 03:28:28;;;;;;;1.77;1.42;;;21.40;35.90;;;;;;5070968;28;20441;-67
2021/12/18 03:30:55;;;;;;;1.98;1.38;;;21.40;36.00;;;;;;5071220;28;20455;-68
2021/12/18 03:33:22;;;;;;;1.83;1.50;;;21.40;35.90;;;;;;5071294;28;20437;-67
2021/12/18 03:35:48;;;;;;;2.00;1.33;;;21.50;35.90;;;;;;5053230;28;20399;-67
2021/12/18 03:38:14;;;;;;;1.58;1.30;;;21.40;36.00;;;;;;5071111;28;20380;-68
2021/12/18 03:40:40;;;;;;;1.33;1.13;;;21.40;36.00;;;;;;5071232;28;20396;-67
2021/12/18 03:43:06;;;;;;;1.60;1.40;;;21.40;36.00;;;;;;5071136;28;20430;-68
2021/12/18 03:45:31;;;;;;;2.10;1.17;;;21.40;36.00;;;;;;5070910;28;20879;-67
2021/12/18 03:47:57;;;;;;;1.67;1.20;;;21.40;36.70;;;;;;5071227;28;20475;-67
2021/12/18 03:50:23;;;;;;;2.00;1.20;;;21.40;36.10;;;;;;5070632;28;20915;-67
2021/12/18 03:52:49;;;;;;;1.60;1.33;;;21.40;36.10;;;;;;5071073;28;20403;-67
2021/12/18 03:55:16;;;;;;;1.63;1.30;;;21.40;36.00;;;;;;5071219;28;20894;-67
2021/12/18 03:57:41;;;;;;;1.90;1.30;;;21.40;36.00;;;;;;5071049;28;20482;-68
2021/12/18 04:00:12;;;;;;;1.83;1.50;;;21.40;36.00;;;;;;5070819;28;20491;-67
2021/12/18 04:02:38;;;;;;;1.67;1.30;;;21.40;35.90;;;;;;5070776;28;20775;-68
2021/12/18 04:05:04;;;;;;;1.63;1.30;;;21.40;35.90;;;;;;5070986;28;20441;-68
2021/12/18 04:07:30;;;;;;;1.60;1.40;;;21.40;36.00;;;;;;5070927;28;20384;-67
2021/12/18 04:09:55;;;;;;;1.70;1.40;;;21.40;35.90;;;;;;5070908;28;20421;-67
2021/12/18 04:12:22;;;;;;;1.53;1.40;;;21.40;35.90;;;;;;5052563;28;20441;-68
2021/12/18 04:14:48;;;;;;;2.38;1.40;;;21.40;35.90;;;;;;5073742;28;20386;-67
2021/12/18 04:17:13;;;;;;;2.00;1.50;;;21.30;35.80;;;;;;5074177;28;20392;-67
2021/12/18 04:19:39;;;;;;;1.40;1.17;;;21.40;35.90;;;;;;5074534;28;20391;-68
2021/12/18 04:22:04;;;;;;;1.73;1.25;;;21.40;36.00;;;;;;5056690;28;20396;-67
2021/12/18 04:24:30;;;;;;;1.70;1.20;;;21.40;36.00;;;;;;5074306;28;20412;-68
2021/12/18 04:26:56;;;;;;;1.45;1.10;;;21.30;35.90;;;;;;5074610;28;20387;-68
2021/12/18 04:29:22;;;;;;;1.70;1.20;;;21.40;36.00;;;;;;5074529;28;20871;-68
2021/12/18 04:31:47;;;;;;;1.50;1.10;;;21.30;35.90;;;;;;5074442;28;20430;-67
2021/12/18 04:34:13;;;;;;;1.67;1.20;;;21.30;35.90;;;;;;5056344;28;20491;-68
2021/12/18 04:36:39;;;;;;;1.65;1.25;;;21.30;35.90;;;;;;5074125;28;20410;-68
2021/12/18 04:39:05;;;;;;;1.63;1.20;;;21.30;35.90;;;;;;5074372;28;20771;-67
2021/12/18 04:41:43;;;;;;;1.40;1.10;;;21.30;35.90;;;;;;5074115;28;20491;-68
2021/12/18 04:44:09;;;;;;;1.70;1.30;;;21.30;35.90;;;;;;5074013;28;20394;-68
2021/12/18 04:46:35;;;;;;;1.58;1.20;;;21.30;35.90;;;;;;5055672;28;20388;-68
2021/12/18 04:49:01;;;;;;;1.50;1.20;;;21.30;35.90;;;;;;5074243;28;20747;-67
2021/12/18 04:51:27;;;;;;;1.65;1.30;;;21.30;35.80;;;;;;5074149;28;20480;-67
2021/12/18 04:53:53;;;;;;;1.38;1.10;;;21.30;35.80;;;;;;5073960;28;20917;-68
2021/12/18 04:56:18;;;;;;;1.40;1.20;;;21.30;35.90;;;;;;5073605;28;20396;-67
2021/12/18 04:58:44;;;;;;;1.80;1.50;;;21.30;35.90;;;;;;5073958;28;20383;-67
2021/12/18 05:01:10;;;;;;;1.60;1.20;;;21.30;35.70;;;;;;5073925;28;20425;-68
2021/12/18 05:03:38;;;;;;;1.70;1.40;;;21.30;35.70;;;;;;5073572;28;20388;-67
2021/12/18 05:06:04;;;;;;;1.50;1.30;;;21.30;35.50;;;;;;5055893;28;20483;-67
2021/12/18 05:08:29;;;;;;;2.57;1.70;;;21.30;35.50;;;;;;5073327;28;20471;-67
2021/12/18 05:10:55;;;;;;;1.95;1.50;;;21.30;35.60;;;;;;5073729;28;20565;-67
2021/12/18 05:13:21;;;;;;;1.70;1.48;;;21.30;35.50;;;;;;5073717;28;20380;-68
2021/12/18 05:15:47;;;;;;;1.97;1.60;;;21.30;35.60;;;;;;5073681;28;20479;-68
2021/12/18 05:18:12;;;;;;;1.65;1.20;;;21.30;35.60;;;;;;5073329;28;20391;-67
2021/12/18 05:20:38;;;;;;;2.10;1.50;;;21.30;35.50;;;;;;5073295;28;20792;-67
2021/12/18 05:23:04;;;;;;;1.73;1.25;;;21.30;35.50;;;;;;5073574;28;20415;-67
2021/12/18 05:25:30;;;;;;;1.77;1.60;;;21.30;35.70;;;;;;5073444;28;20449;-68
2021/12/18 05:27:55;;;;;;;1.55;1.30;;;21.30;35.60;;;;;;5073419;28;20444;-67
2021/12/18 05:30:21;;;;;;;1.70;1.40;;;21.30;35.70;;;;;;5072790;28;20507;-68
2021/12/18 05:32:47;;;;;;;1.75;1.35;;;21.30;35.70;;;;;;5073337;28;20811;-68
2021/12/18 05:35:15;;;;;;;1.77;1.40;;;21.30;35.70;;;;;;5073313;28;20717;-67
2021/12/18 05:37:48;;;;;;;1.85;1.42;;;21.30;35.60;;;;;;5073188;28;20445;-68
2021/12/18 05:40:17;;;;;;;2.22;1.77;;;21.20;35.50;;;;;;5072957;28;20399;-67
2021/12/18 05:42:43;;;;;;;1.73;1.38;;;21.30;35.50;;;;;;5072745;28;20423;-67
2021/12/18 05:45:09;;;;;;;1.90;1.50;;;21.20;35.50;;;;;;5055151;28;20403;-67
2021/12/18 05:47:35;;;;;;;2.17;1.60;;;21.20;35.40;;;;;;5072644;28;20387;-68
2021/12/18 05:50:01;;;;;;;2.20;1.60;;;21.30;35.30;;;;;;5055030;28;20396;-67
2021/12/18 05:52:27;;;;;;;1.90;1.50;;;21.30;35.40;;;;;;5072497;28;20756;-67
2021/12/18 05:54:53;;;;;;;1.70;1.35;;;21.30;35.30;;;;;;5072877;28;20380;-67
2021/12/18 05:57:18;;;;;;;1.70;1.40;;;21.20;35.30;;;;;;5072865;28;20399;-68
2021/12/18 05:59:44;;;;;;;1.55;1.20;;;21.20;35.40;;;;;;5054880;28;20406;-67
2021/12/18 06:02:11;;;;;;;1.73;1.33;;;21.20;35.40;;;;;;5072480;28;20388;-68
2021/12/18 06:04:37;;;;;;;1.98;1.20;;;21.30;35.50;;;;;;5072408;28;20760;-68
2021/12/18 06:07:05;;;;;;;1.90;1.37;;;21.20;35.40;;;;;;5072685;28;20401;-67
2021/12/18 06:09:33;;;;;;;2.03;1.15;;;21.20;35.40;;;;;;5072577;28;20415;-68
2021/12/18 06:12:00;;;;;;;1.40;1.10;;;21.30;35.50;;;;;;5072539;28;20428;-68
2021/12/18 06:14:27;;;;;;;1.60;1.20;;;21.20;35.50;;;;;;5072059;28;20387;-67
2021/12/18 06:16:52;;;;;;;1.33;1.10;;;21.30;35.50;;;;;;5072423;28;20392;-67
2021/12/18 06:19:18;;;;;;;1.43;1.03;;;21.20;35.40;;;;;;5072506;28;20376;-67
2021/12/18 06:21:44;;;;;;;1.60;1.10;;;21.20;35.40;;;;;;5072307;28;20388;-67
2021/12/18 06:24:09;;;;;;;1.20;1.00;;;21.20;35.40;;;;;;5072084;28;20388;-67
2021/12/18 06:26:35;;;;;;;1.50;1.15;;;21.30;35.50;;;;;;5071766;28;20384;-68
2021/12/18 06:29:00;;;;;;;1.70;1.20;;;21.20;35.60;;;;;;5072240;28;20402;-68
2021/12/18 06:31:26;;;;;;;5.15;1.20;;;21.20;35.60;;;;;;5054168;28;20498;-68
2021/12/18 06:33:52;;;;;;;4.40;1.20;;;21.30;36.00;;;;;;5072118;28;20466;-68
2021/12/18 06:36:17;;;;;;;2.45;1.25;;;21.40;36.00;;;;;;5071562;28;20429;-68
2021/12/18 06:38:43;;;;;;;4.30;1.30;;;21.50;36.40;;;;;;5071863;28;20383;-68
2021/12/18 06:41:09;;;;;;;4.00;1.60;;;21.50;36.60;;;;;;5071880;28;20886;-67
2021/12/18 06:43:35;;;;;;;3.33;1.23;;;21.60;36.70;;;;;;5071914;28;20380;-67
2021/12/18 06:46:00;;;;;;;2.30;1.30;;;21.60;36.40;;;;;;5072197;28;20871;-68
2021/12/18 06:48:26;;;;;;;5.60;1.50;;;21.50;36.60;;;;;;5071408;28;20387;-67
2021/12/18 06:50:52;;;;;;;4.65;1.48;;;21.60;37.60;;;;;;5071735;28;20411;-68
2021/12/18 06:53:18;;;;;;;4.97;1.60;;;21.60;38.10;;;;;;5071852;28;20417;-67
2021/12/18 06:55:44;;;;;;;5.22;1.65;;;21.60;38.30;;;;;;5071797;28;20376;-69
2021/12/18 06:58:10;;;;;;;4.63;1.50;;;21.60;38.20;;;;;;5071720;28;20402;-68
2021/12/18 07:00:36;;;;;;;4.03;1.40;;;21.70;38.80;;;;;;5070855;28;20795;-69
2021/12/18 07:03:01;;;;;;;2.90;1.40;;;21.80;38.90;;;;;;5071955;28;20427;-69
2021/12/18 07:05:27;;;;;;;3.07;1.60;;;21.80;39.10;;;;;;5071681;28;20388;-68
2021/12/18 07:07:53;;;;;;;5.32;1.30;;;21.80;39.10;;;;;;5053647;28;20388;-68
2021/12/18 07:10:19;;;;;;;4.60;1.13;;;21.80;39.30;;;;;;5053232;28;20400;-67
2021/12/18 07:12:45;;;;;;;3.40;1.13;;;21.80;39.10;;;;;;5071288;28;20744;-67
2021/12/18 07:15:12;;;;;;;3.42;1.38;;;21.90;39.10;;;;;;5071669;28;20388;-68
2021/12/18 07:17:38;;;;;;;2.90;1.27;;;21.90;38.70;;;;;;5071372;28;20395;-68
2021/12/18 07:20:06;;;;;;;5.75;1.30;;;21.80;38.90;;;;;;5071378;28;20380;-68
2021/12/18 07:22:32;;;;;;;5.22;1.42;;;21.90;39.20;;;;;;5070918;28;20394;-68
2021/12/18 07:24:57;;;;;;;4.43;1.60;;;22.00;40.20;;;;;;5053493;28;20384;-67
2021/12/18 07:27:23;;;;;;;5.53;1.33;;;22.00;40.40;;;;;;5071381;28;20486;-67
2021/12/18 07:29:49;;;;;;;6.60;1.47;;;22.00;39.80;;;;;;5071348;28;20748;-68
2021/12/18 07:32:14;;;;;;;2.35;1.35;;;22.10;40.40;;;;;;5053087;28;20926;-67
2021/12/18 07:34:40;;;;;;;2.83;1.20;;;22.10;40.50;;;;;;5070845;28;20380;-68
2021/12/18 07:37:06;;;;;;;2.75;1.08;;;22.10;40.80;;;;;;5053085;28;20956;-68
2021/12/18 07:39:31;;;;;;;3.00;1.30;;;22.10;40.70;;;;;;5070247;28;20739;-69
2021/12/18 07:41:57;;;;;;;2.65;1.10;;;22.10;40.40;;;;;;5070626;28;20935;-67
2021/12/18 07:44:23;;;;;;;4.70;1.40;;;22.10;40.60;;;;;;5070929;28;20872;-67
2021/12/18 07:46:48;;;;;;;2.75;1.10;;;22.10;40.50;;;;;;5070821;28;20900;-68
2021/12/18 07:49:14;;;;;;;3.00;1.20;;;22.10;40.50;;;;;;5073623;28;20391;-68
2021/12/18 07:51:40;;;;;;;6.25;1.85;;;22.10;40.30;;;;;;5057078;28;20415;-68
2021/12/18 07:54:06;;;;;;;6.13;2.10;;;22.20;41.40;;;;;;5074939;28;20387;-68
2021/12/18 07:56:34;;;;;;;5.95;1.70;;;22.20;41.70;;;;;;5074470;28;20391;-68
2021/12/18 07:59:00;;;;;;;3.95;1.67;;;22.30;41.90;;;;;;5075214;28;20467;-69
2021/12/18 08:01:26;;;;;;;7.93;1.83;;;22.30;41.40;;;;;;5074631;28;20826;-68
2021/12/18 08:03:52;;;;;;;6.50;1.75;;;22.30;42.00;;;;;;5073339;28;20401;-68
2021/12/18 08:06:20;;;;;;;5.78;1.60;;;22.40;41.70;;;;;;5063201;28;20398;-68
2021/12/18 08:08:46;;;;;;;5.93;1.70;;;22.40;41.60;;;;;;5064172;28;20384;-69
2021/12/18 08:11:12;;;;;;;4.15;1.40;;;22.40;41.00;;;;;;5054749;28;20497;-69
2021/12/18 08:13:38;;;;;;;4.57;1.70;;;22.40;40.60;;;;;;5054794;28;20405;-68
2021/12/18 08:16:04;;;;;;;3.65;1.20;;;22.40;40.70;;;;;;5054490;28;20428;-68
2021/12/18 08:18:30;;;;;;;4.30;1.50;;;22.40;41.10;;;;;;5054020;28;20468;-68
2021/12/18 08:20:55;;;;;;;3.85;1.35;;;22.40;41.10;;;;;;5060998;28;20832;-68
2021/12/18 08:23:21;;;;;;;3.15;1.10;;;22.40;40.60;;;;;;5074056;28;20442;-68
2021/12/18 08:25:48;;;;;;;3.20;1.33;;;22.40;40.70;;;;;;5055251;28;20402;-68
2021/12/18 08:28:13;;;;;;;3.80;1.30;;;22.30;40.10;;;;;;5074522;28;20395;-69
2021/12/18 08:30:39;;;;;;;12.27;1.75;;;22.30;39.80;;;;;;5072877;28;20407;-68
2021/12/18 08:33:05;;;;;;;3.95;1.27;;;22.20;40.30;;;;;;5055564;28;20392;-68
2021/12/18 08:35:32;;;;;;;5.38;1.20;;;22.20;39.70;;;;;;5055951;28;20392;-69
2021/12/18 08:38:01;;;;;;;7.57;1.37;;;22.20;39.90;;;;;;5074126;28;20414;-68
2021/12/18 08:40:28;;;;;;;3.72;1.20;;;22.20;39.80;;;;;;5087619;28;20489;-68
2021/12/18 08:42:54;;;;;;;4.75;1.33;;;22.20;39.20;;;;;;5093142;28;20946;-68
2021/12/18 08:45:20;;;;;;;4.10;1.20;;;22.20;38.60;;;;;;5074891;28;20909;-68
2021/12/18 08:47:46;;;;;;;3.73;1.30;;;22.10;38.20;;;;;;5092451;28;20475;-68
2021/12/18 08:50:17;;;;;;;4.78;1.40;;;22.10;37.60;;;;;;5092638;28;20890;-69
2021/12/18 08:52:43;;;;;;;4.88;1.20;;;22.00;37.60;;;;;;5083623;28;20404;-70
2021/12/18 08:55:09;;;;;;;5.88;1.30;;;22.00;37.30;;;;;;5072022;28;20388;-70
2021/12/18 08:57:35;;;;;;;5.20;1.90;;;22.00;38.00;;;;;;5072169;28;20876;-70
2021/12/18 09:00:01;;;;;;;5.37;1.53;;;22.00;37.40;;;;;;5054072;28;20391;-69
2021/12/18 09:02:27;;;;;;;2.75;1.40;;;21.90;37.00;;;;;;5054171;28;20830;-69
2021/12/18 09:04:52;;;;;;;5.30;1.40;;;21.90;36.90;;;;;;5072036;28;20449;-69
2021/12/18 09:07:18;;;;;;;3.42;1.30;;;21.80;37.00;;;;;;5072366;28;20864;-69
2021/12/18 09:09:44;;;;;;;5.57;1.40;;;21.90;36.80;;;;;;5072174;28;20387;-70
2021/12/18 09:12:11;;;;;;;3.03;1.20;;;21.90;36.70;;;;;;5072812;28;20977;-69
2021/12/18 09:14:39;;;;;;;3.93;1.40;;;21.80;36.80;;;;;;5053807;28;20496;-69
2021/12/18 09:17:05;;;;;;;4.20;1.27;;;21.80;37.10;;;;;;5072185;28;20384;-69
2021/12/18 09:19:31;;;;;;;6.43;1.40;;;21.80;37.70;;;;;;5072108;28;20391;-69
2021/12/18 09:21:58;;;;;;;2.83;1.20;;;21.70;37.50;;;;;;5072111;28;20392;-69
2021/12/18 09:24:24;;;;;;;4.70;1.10;;;21.80;37.40;;;;;;5071894;28;20994;-69
2021/12/18 09:26:50;;;;;;;4.38;1.20;;;21.70;37.90;;;;;;5071643;28;20388;-69
2021/12/18 09:29:16;;;;;;;2.58;1.30;;;21.70;37.40;;;;;;5072029;28;20398;-69
2021/12/18 09:31:41;;;;;;;4.47;1.33;;;21.80;37.10;;;;;;5071991;28;20411;-69
2021/12/18 09:34:07;;;;;;;4.55;1.20;;;21.80;37.00;;;;;;5073067;28;20483;-69
2021/12/18 09:36:32;;;;;;;3.23;1.20;;;21.80;37.00;;;;;;5053757;28;20769;-69
2021/12/18 09:38:58;;;;;;;3.80;1.25;;;21.70;36.90;;;;;;5071316;28;20867;-69
2021/12/18 09:41:25;;;;;;;2.90;1.20;;;21.80;36.90;;;;;;4990319;28;1814998;-69
2021/12/18 09:43:51;;;;;;;2.43;1.20;;;21.70;36.90;;;;;;5053707;28;20479;-68
2021/12/18 09:46:17;;;;;;;2.90;1.13;;;21.70;36.80;;;;;;5053740;28;20409;-69
2021/12/18 09:48:45;;;;;;;1.92;1.20;;;21.70;36.70;;;;;;5052577;28;20398;-69
2021/12/18 09:51:21;;;;;;;2.13;1.17;;;21.80;36.60;;;;;;5034961;28;20825;-68
2021/12/18 09:53:48;;;;;;;3.20;1.20;;;21.80;36.50;;;;;;5034999;28;20409;-70
2021/12/18 09:56:14;;;;;;;2.88;1.20;;;21.80;36.40;;;;;;5052481;28;20735;-70
2021/12/18 09:58:40;;;;;;;1.98;1.20;;;21.90;36.50;;;;;;5054315;28;20407;-68
2021/12/18 10:01:06;;;;;;;2.22;1.10;;;21.90;36.20;;;;;;5070507;28;20396;-69
2021/12/18 10:03:53;;;;;;;2.25;1.05;;;21.90;36.30;;;;;;5071476;28;20395;-69
2021/12/18 10:06:36;;;;;;;2.92;1.08;;;22.00;36.30;;;;;;5060409;28;20408;-69
2021/12/18 10:09:11;;;;;;;2.38;1.23;;;22.00;36.10;;;;;;5077121;28;20395;-69
2021/12/18 10:11:50;;;;;;;1.90;0.95;;;22.10;35.80;;;;;;5071556;28;20514;-70
2021/12/18 10:14:17;;;;;;;2.00;1.10;;;22.10;35.80;;;;;;5060888;28;20463;-70
2021/12/18 10:16:51;;;;;;;2.33;1.10;;;22.00;35.90;;;;;;5065042;28;20468;-69
2021/12/18 10:19:39;;;;;;;2.47;1.15;;;22.10;35.80;;;;;;5075482;28;20391;-69
2021/12/18 10:22:07;;;;;;;2.30;1.00;;;22.10;35.70;;;;;;5080155;28;20887;-68
2021/12/18 10:24:36;;;;;;;1.92;0.90;;;22.00;35.80;;;;;;5076230;28;20389;-70
2021/12/18 10:27:19;;;;;;;2.45;1.10;;;22.00;35.80;;;;;;5053889;28;20899;-68
2021/12/18 10:29:46;;;;;;;2.72;1.27;;;22.10;35.70;;;;;;5069757;28;20382;-68
2021/12/18 10:32:16;;;;;;;2.38;1.02;;;22.10;35.60;;;;;;5066704;28;20419;-69
2021/12/18 10:34:50;;;;;;;1.90;1.10;;;22.00;35.50;;;;;;5053056;28;20757;-69
2021/12/18 10:37:36;;;;;;;2.33;0.90;;;22.10;35.50;;;;;;5071690;28;20425;-68
2021/12/18 10:40:11;;;;;;;1.70;1.20;;;22.10;35.60;;;;;;5065230;28;20388;-67
2021/12/18 10:42:46;;;;;;;3.60;1.10;;;22.10;35.50;;;;;;5070995;28;20497;-68
2021/12/18 10:45:15;;;;;;;2.25;1.30;;;22.10;35.40;;;;;;5054020;28;20392;-69
2021/12/18 10:47:55;;;;;;;2.40;1.10;;;22.10;35.30;;;;;;5069367;28;20405;-69
2021/12/18 10:50:50;;;;;;;1.67;1.08;;;22.00;35.50;;;;;;5065846;28;20391;-68
2021/12/18 10:53:22;;;;;;;1.48;1.00;;;22.00;35.60;;;;;;5068028;28;20966;-68
2021/12/18 10:56:01;;;;;;;2.90;1.50;;;21.90;35.60;;;;;;5060314;28;20384;-68
2021/12/18 10:58:34;;;;;;;3.10;1.53;;;21.80;35.30;;;;;;5064086;28;20906;-69
2021/12/18 11:01:10;;;;;;;4.15;1.58;;;21.70;35.20;;;;;;5072187;28;20406;-68
2021/12/18 11:03:48;;;;;;;2.67;1.42;;;21.70;35.70;;;;;;5056052;28;20387;-68
2021/12/18 11:06:21;;;;;;;2.33;1.30;;;21.70;35.20;;;;;;5069788;28;20400;-68
2021/12/18 11:08:54;;;;;;;3.20;1.40;;;21.70;35.30;;;;;;5079610;28;20478;-68
2021/12/18 11:14:04;;;;;;;2.10;1.30;;;21.60;35.30;;;;;;5071594;28;20760;-68
2021/12/18 11:16:35;;;;;;;2.72;1.10;;;21.60;35.50;;;;;;5070814;28;20392;-67
2021/12/18 11:19:02;;;;;;;3.00;1.38;;;21.70;35.50;;;;;;5070969;28;20380;-68
2021/12/18 11:21:29;;;;;;;3.95;1.40;;;21.60;35.40;;;;;;5071151;28;20396;-67
2021/12/18 11:24:06;;;;;;;3.42;1.40;;;21.60;35.60;;;;;;5071229;28;20386;-69
2021/12/18 11:26:50;;;;;;;4.68;1.50;;;21.60;35.60;;;;;;5070774;28;20910;-68
2021/12/18 11:29:46;;;;;;;2.53;1.23;;;21.60;35.70;;;;;;5080442;28;20773;-69
2021/12/18 11:32:15;;;;;;;3.00;1.20;;;21.60;35.70;;;;;;5074731;28;20411;-68
2021/12/18 11:34:43;;;;;;;3.80;1.35;;;21.70;35.70;;;;;;5069833;28;20384;-68
2021/12/18 11:37:11;;;;;;;3.08;1.20;;;21.70;35.70;;;;;;5051427;28;20399;-67
2021/12/18 11:39:39;;;;;;;2.83;1.10;;;21.70;35.60;;;;;;5070090;28;20391;-67
2021/12/18 11:42:05;;;;;;;2.85;1.23;;;21.60;35.60;;;;;;5045888;28;20410;-68
2021/12/18 11:44:40;;;;;;;3.33;1.40;;;21.60;35.70;;;;;;5039335;28;20396;-68
2021/12/18 11:47:26;;;;;;;2.28;1.40;;;21.60;35.70;;;;;;5048693;28;20400;-67
2021/12/18 11:50:05;;;;;;;2.22;1.40;;;21.70;35.70;;;;;;5050198;28;20413;-68
2021/12/18 11:52:53;;;;;;;2.72;1.60;;;21.60;35.50;;;;;;5042858;28;20496;-69
2021/12/18 11:55:19;;;;;;;2.30;1.50;;;21.60;35.50;;;;;;5048711;28;20394;-68
2021/12/18 11:57:51;;;;;;;2.50;1.50;;;21.60;35.60;;;;;;5047315;28;20390;-68
2021/12/18 12:00:23;;;;;;;3.20;1.23;;;21.60;35.70;;;;;;5044756;28;20852;-68
2021/12/18 12:02:57;;;;;;;4.30;2.22;;;21.60;35.80;;;;;;5049181;28;20397;-67
2021/12/18 12:05:46;;;;;;;3.22;2.60;;;21.60;35.20;;;;;;5048615;28;20405;-68
2021/12/18 12:08:17;;;;;;;3.92;3.30;;;21.50;34.00;;;;;;5045640;28;20396;-67
2021/12/18 12:11:15;;;;;;;3.97;2.90;;;21.40;33.20;;;;;;5046829;28;20517;-67
2021/12/18 12:13:59;;;;;;;5.47;2.70;;;21.30;33.60;;;;;;5047068;28;20408;-68
2021/12/18 12:16:46;;;;;;;5.13;2.60;;;21.30;34.00;;;;;;5047114;28;20432;-67
2021/12/18 12:19:21;;;;;;;4.10;2.08;;;21.40;34.20;;;;;;5048185;28;20815;-67
2021/12/18 12:21:49;;;;;;;3.40;1.90;;;21.40;34.60;;;;;;5048094;28;20486;-67
2021/12/18 12:24:22;;;;;;;7.25;2.40;;;21.40;34.60;;;;;;5050291;28;20802;-67
2021/12/18 12:26:49;;;;;;;5.80;2.60;;;21.40;34.70;;;;;;5048129;28;20503;-67
2021/12/18 12:29:16;;;;;;;5.93;2.42;;;21.40;34.60;;;;;;5048205;28;20394;-67
2021/12/18 12:32:00;;;;;;;4.00;2.27;;;21.40;34.60;;;;;;5048414;28;20453;-67
2021/12/18 12:34:33;;;;;;;6.75;2.33;;;21.40;34.60;;;;;;5051582;28;20394;-67
2021/12/18 12:37:37;;;;;;;5.85;2.33;;;21.40;34.60;;;;;;5052855;28;20493;-67
2021/12/18 12:40:13;;;;;;;5.05;2.35;;;21.30;34.70;;;;;;5050252;28;20421;-67
2021/12/18 12:42:42;;;;;;;4.53;1.95;;;21.30;35.00;;;;;;5068729;28;20399;-67
2021/12/18 12:45:28;;;;;;;3.58;1.80;;;21.30;35.10;;;;;;5074261;28;20440;-67
2021/12/18 12:47:54;;;;;;;3.72;1.85;;;21.30;35.10;;;;;;5074017;28;20383;-68
2021/12/18 12:50:20;;;;;;;3.95;2.00;;;21.40;35.20;;;;;;5064848;28;20399;-68
2021/12/18 12:52:57;;;;;;;4.00;1.88;;;21.30;35.10;;;;;;5072249;28;20442;-68
2021/12/18 12:55:26;;;;;;;3.40;1.70;;;21.40;35.30;;;;;;5055104;28;20391;-69
2021/12/18 12:57:55;;;;;;;3.83;1.60;;;21.40;35.30;;;;;;5055963;28;20384;-69
2021/12/18 13:00:23;;;;;;;2.60;1.70;;;21.30;35.40;;;;;;5055974;28;20415;-68
2021/12/18 13:03:01;;;;;;;3.28;1.70;;;21.40;35.40;;;;;;5072313;28;20438;-68
2021/12/18 13:05:29;;;;;;;4.97;1.73;;;21.50;35.30;;;;;;5071086;28;20538;-68
2021/12/18 13:07:57;;;;;;;2.75;1.70;;;21.50;35.30;;;;;;5073935;28;20474;-68
2021/12/18 13:10:25;;;;;;;3.40;1.67;;;21.40;35.30;;;;;;5055889;28;20401;-68
2021/12/18 13:12:52;;;;;;;3.05;1.70;;;21.40;35.40;;;;;;5055339;28;20503;-68
2021/12/18 13:15:18;;;;;;;3.27;1.50;;;21.40;35.50;;;;;;5055849;28;20380;-68
2021/12/18 13:17:44;;;;;;;4.05;1.60;;;21.40;35.40;;;;;;5073727;28;20399;-67
2021/12/18 13:20:10;;;;;;;2.80;1.60;;;21.50;35.30;;;;;;5055720;28;20396;-68
2021/12/18 13:22:36;;;;;;;3.88;1.70;;;21.50;35.20;;;;;;5072858;28;20392;-67
2021/12/18 13:25:14;;;;;;;2.70;1.83;;;21.40;35.30;;;;;;5072485;28;20468;-68
2021/12/18 13:28:00;;;;;;;2.90;1.60;;;21.40;35.30;;;;;;5072293;28;20396;-67
2021/12/18 13:30:26;;;;;;;3.58;1.63;;;21.40;35.40;;;;;;5073386;28;20380;-68
2021/12/18 13:32:54;;;;;;;3.13;1.60;;;21.40;35.40;;;;;;5072991;28;20509;-67
2021/12/18 13:35:21;;;;;;;2.33;1.60;;;21.50;35.40;;;;;;5073384;28;20376;-67
2021/12/18 13:38:00;;;;;;;1.92;1.60;;;21.50;35.30;;;;;;5073320;28;20391;-67